sensor_id;sensor_type;location;lat;lon;timestamp;P1;P2;P0
70915;PMS5003;58557;50.982;-3.222;2023-06-14T00:01:59;27;26;
70915;PMS5003;58557;50.982;-3.222;2023-06-14T00:04:24;30;30;
70915;PMS5003;58557;50.982;-3.222;2023-06-14T00:06:50;28;26;
70915;PMS5003;58557;50.982;-3.222;2023-06-14T00:09:15;23;23;
70915;PMS5003;58557;50.982;-3.222;2023-06-14T00:11:41;24;24;
70915;PMS5003;58557;50.982;-3.222;2023-06-14T00:14:06;27;27;
70915;PMS5003;58557;50.982;-3.222;2023-06-14T00:16:31;32;29;
70915;PMS5003;58557;50.982;-3.222;2023-06-14T00:18:56;28;28;
70915;PMS5003;58557;50.982;-3.222;2023-06-14T00:21:21;28;26;
70915;PMS5003;58557;50.982;-3.222;2023-06-14T00:23:46;25;25;
70915;PMS5003;58557;50.982;-3.222;2023-06-14T00:26:12;31;28;
70915;PMS5003;58557;50.982;-3.222;2023-06-14T00:28:37;32;31;
70915;PMS5003;58557;50.982;-3.222;2023-06-14T00:31:02;27;27;
70915;PMS5003;58557;50.982;-3.222;2023-06-14T00:33:28;25;24;
70915;PMS5003;58557;50.982;-3.222;2023-06-14T00:35:54;28;27;
70915;PMS5003;58557;50.982;-3.222;2023-06-14T00:38:19;25;24;
70915;PMS5003;58557;50.982;-3.222;2023-06-14T00:40:45;27;26;
70915;PMS5003;58557;50.982;-3.222;2023-06-14T00:43:10;37;35;
70915;PMS5003;58557;50.982;-3.222;2023-06-14T00:45:35;31;31;
70915;PMS5003;58557;50.982;-3.222;2023-06-14T00:48:01;28;26;
70915;PMS5003;58557;50.982;-3.222;2023-06-14T00:50:26;33;31;
70915;PMS5003;58557;50.982;-3.222;2023-06-14T00:52:52;35;32;
70915;PMS5003;58557;50.982;-3.222;2023-06-14T00:55:18;30;29;
70915;PMS5003;58557;50.982;-3.222;2023-06-14T00:57:43;37;34;
70915;PMS5003;58557;50.982;-3.222;2023-06-14T01:00:08;32;30;
70915;PMS5003;58557;50.982;-3.222;2023-06-14T01:02:33;32;30;
70915;PMS5003;58557;50.982;-3.222;2023-06-14T01:04:58;30;29;
70915;PMS5003;58557;50.982;-3.222;2023-06-14T01:07:28;28;28;
70915;PMS5003;58557;50.982;-3.222;2023-06-14T01:09:53;30;26;
70915;PMS5003;58557;50.982;-3.222;2023-06-14T01:12:17;25;25;
70915;PMS5003;58557;50.982;-3.222;2023-06-14T01:14:39;31;29;
70915;PMS5003;58557;50.982;-3.222;2023-06-14T01:17:05;36;34;
70915;PMS5003;58557;50.982;-3.222;2023-06-14T01:19:31;29;26;
70915;PMS5003;58557;50.982;-3.222;2023-06-14T01:21:56;33;31;
70915;PMS5003;58557;50.982;-3.222;2023-06-14T01:24:22;28;28;
70915;PMS5003;58557;50.982;-3.222;2023-06-14T01:26:47;30;30;
70915;PMS5003;58557;50.982;-3.222;2023-06-14T01:29:12;30;27;
70915;PMS5003;58557;50.982;-3.222;2023-06-14T01:31:38;28;28;
70915;PMS5003;58557;50.982;-3.222;2023-06-14T01:34:03;31;31;
70915;PMS5003;58557;50.982;-3.222;2023-06-14T01:36:28;25;24;
70915;PMS5003;58557;50.982;-3.222;2023-06-14T01:38:53;29;29;
70915;PMS5003;58557;50.982;-3.222;2023-06-14T01:41:19;31;31;
70915;PMS5003;58557;50.982;-3.222;2023-06-14T01:43:44;28;28;
70915;PMS5003;58557;50.982;-3.222;2023-06-14T01:46:10;29;28;
70915;PMS5003;58557;50.982;-3.222;2023-06-14T01:48:35;30;28;
70915;PMS5003;58557;50.982;-3.222;2023-06-14T01:51:01;32;30;
70915;PMS5003;58557;50.982;-3.222;2023-06-14T01:53:26;28;28;
70915;PMS5003;58557;50.982;-3.222;2023-06-14T01:55:51;32;32;
70915;PMS5003;58557;50.982;-3.222;2023-06-14T01:58:16;34;34;
70915;PMS5003;58557;50.982;-3.222;2023-06-14T02:00:41;33;32;
70915;PMS5003;58557;50.982;-3.222;2023-06-14T02:03:07;35;34;
70915;PMS5003;58557;50.982;-3.222;2023-06-14T02:05:32;30;29;
70915;PMS5003;58557;50.982;-3.222;2023-06-14T02:07:57;37;34;
70915;PMS5003;58557;50.982;-3.222;2023-06-14T02:10:23;36;33;
70915;PMS5003;58557;50.982;-3.222;2023-06-14T02:12:49;40;37;
70915;PMS5003;58557;50.982;-3.222;2023-06-14T02:15:14;40;37;
70915;PMS5003;58557;50.982;-3.222;2023-06-14T02:17:39;35;33;
70915;PMS5003;58557;50.982;-3.222;2023-06-14T02:20:05;36;33;
70915;PMS5003;58557;50.982;-3.222;2023-06-14T02:22:30;32;29;
70915;PMS5003;58557;50.982;-3.222;2023-06-14T02:24:56;31;31;
70915;PMS5003;58557;50.982;-3.222;2023-06-14T02:27:21;31;29;
70915;PMS5003;58557;50.982;-3.222;2023-06-14T02:29:47;35;29;
70915;PMS5003;58557;50.982;-3.222;2023-06-14T02:32:12;37;32;
70915;PMS5003;58557;50.982;-3.222;2023-06-14T02:34:37;31;29;
70915;PMS5003;58557;50.982;-3.222;2023-06-14T02:37:03;35;33;
70915;PMS5003;58557;50.982;-3.222;2023-06-14T02:39:29;38;38;
70915;PMS5003;58557;50.982;-3.222;2023-06-14T02:41:54;31;29;
70915;PMS5003;58557;50.982;-3.222;2023-06-14T02:44:19;32;32;
70915;PMS5003;58557;50.982;-3.222;2023-06-14T02:46:45;39;37;
70915;PMS5003;58557;50.982;-3.222;2023-06-14T02:49:10;37;36;
70915;PMS5003;58557;50.982;-3.222;2023-06-14T02:51:36;38;36;
70915;PMS5003;58557;50.982;-3.222;2023-06-14T02:54:01;29;27;
70915;PMS5003;58557;50.982;-3.222;2023-06-14T02:56:27;38;35;
70915;PMS5003;58557;50.982;-3.222;2023-06-14T02:58:52;32;32;
70915;PMS5003;58557;50.982;-3.222;2023-06-14T03:01:17;33;32;
70915;PMS5003;58557;50.982;-3.222;2023-06-14T03:03:43;35;35;
70915;PMS5003;58557;50.982;-3.222;2023-06-14T03:06:08;36;35;
70915;PMS5003;58557;50.982;-3.222;2023-06-14T03:08:33;31;31;
70915;PMS5003;58557;50.982;-3.222;2023-06-14T03:10:59;33;33;
70915;PMS5003;58557;50.982;-3.222;2023-06-14T03:13:24;39;37;
70915;PMS5003;58557;50.982;-3.222;2023-06-14T03:15:49;35;33;
70915;PMS5003;58557;50.982;-3.222;2023-06-14T03:18:15;33;30;
70915;PMS5003;58557;50.982;-3.222;2023-06-14T03:20:40;31;29;
70915;PMS5003;58557;50.982;-3.222;2023-06-14T03:23:06;31;31;
70915;PMS5003;58557;50.982;-3.222;2023-06-14T03:25:31;31;30;
70915;PMS5003;58557;50.982;-3.222;2023-06-14T03:27:57;36;34;
70915;PMS5003;58557;50.982;-3.222;2023-06-14T03:30:22;35;34;
70915;PMS5003;58557;50.982;-3.222;2023-06-14T03:32:47;42;37;
70915;PMS5003;58557;50.982;-3.222;2023-06-14T03:35:12;43;41;
70915;PMS5003;58557;50.982;-3.222;2023-06-14T03:37:37;33;31;
70915;PMS5003;58557;50.982;-3.222;2023-06-14T03:40:03;39;37;
70915;PMS5003;58557;50.982;-3.222;2023-06-14T03:42:28;38;36;
70915;PMS5003;58557;50.982;-3.222;2023-06-14T03:44:54;39;36;
70915;PMS5003;58557;50.982;-3.222;2023-06-14T03:47:19;27;26;
70915;PMS5003;58557;50.982;-3.222;2023-06-14T03:49:45;39;39;
70915;PMS5003;58557;50.982;-3.222;2023-06-14T03:52:10;37;33;
70915;PMS5003;58557;50.982;-3.222;2023-06-14T03:54:35;34;32;
70915;PMS5003;58557;50.982;-3.222;2023-06-14T03:57:00;37;36;
70915;PMS5003;58557;50.982;-3.222;2023-06-14T03:59:25;37;36;
70915;PMS5003;58557;50.982;-3.222;2023-06-14T04:01:51;38;37;
70915;PMS5003;58557;50.982;-3.222;2023-06-14T04:04:16;31;31;
70915;PMS5003;58557;50.982;-3.222;2023-06-14T04:06:41;40;37;
70915;PMS5003;58557;50.982;-3.222;2023-06-14T04:09:07;37;33;
70915;PMS5003;58557;50.982;-3.222;2023-06-14T04:11:32;34;33;
70915;PMS5003;58557;50.982;-3.222;2023-06-14T04:13:58;37;35;
70915;PMS5003;58557;50.982;-3.222;2023-06-14T04:16:23;36;34;
70915;PMS5003;58557;50.982;-3.222;2023-06-14T04:18:49;36;30;
70915;PMS5003;58557;50.982;-3.222;2023-06-14T04:21:14;38;35;
70915;PMS5003;58557;50.982;-3.222;2023-06-14T04:23:40;39;38;
70915;PMS5003;58557;50.982;-3.222;2023-06-14T04:26:05;37;36;
70915;PMS5003;58557;50.982;-3.222;2023-06-14T04:28:30;35;31;
70915;PMS5003;58557;50.982;-3.222;2023-06-14T04:30:56;40;34;
70915;PMS5003;58557;50.982;-3.222;2023-06-14T04:33:21;42;39;
70915;PMS5003;58557;50.982;-3.222;2023-06-14T04:35:47;40;39;
70915;PMS5003;58557;50.982;-3.222;2023-06-14T04:38:13;36;35;
70915;PMS5003;58557;50.982;-3.222;2023-06-14T04:40:38;43;36;
70915;PMS5003;58557;50.982;-3.222;2023-06-14T04:43:04;43;40;
70915;PMS5003;58557;50.982;-3.222;2023-06-14T04:45:30;37;37;
70915;PMS5003;58557;50.982;-3.222;2023-06-14T04:47:55;37;33;
70915;PMS5003;58557;50.982;-3.222;2023-06-14T04:50:21;44;42;
70915;PMS5003;58557;50.982;-3.222;2023-06-14T04:52:47;37;36;
70915;PMS5003;58557;50.982;-3.222;2023-06-14T04:55:12;42;38;
70915;PMS5003;58557;50.982;-3.222;2023-06-14T04:57:38;38;36;
70915;PMS5003;58557;50.982;-3.222;2023-06-14T05:00:04;42;38;
70915;PMS5003;58557;50.982;-3.222;2023-06-14T05:02:29;38;36;
70915;PMS5003;58557;50.982;-3.222;2023-06-14T05:04:54;43;42;
70915;PMS5003;58557;50.982;-3.222;2023-06-14T05:07:19;41;39;
70915;PMS5003;58557;50.982;-3.222;2023-06-14T05:09:44;36;34;
70915;PMS5003;58557;50.982;-3.222;2023-06-14T05:12:10;40;39;
70915;PMS5003;58557;50.982;-3.222;2023-06-14T05:14:35;31;29;
70915;PMS5003;58557;50.982;-3.222;2023-06-14T05:17:00;37;33;
70915;PMS5003;58557;50.982;-3.222;2023-06-14T05:19:26;42;42;
70915;PMS5003;58557;50.982;-3.222;2023-06-14T05:21:51;38;35;
70915;PMS5003;58557;50.982;-3.222;2023-06-14T05:24:17;33;33;
70915;PMS5003;58557;50.982;-3.222;2023-06-14T05:26:43;33;33;
70915;PMS5003;58557;50.982;-3.222;2023-06-14T05:29:09;34;31;
70915;PMS5003;58557;50.982;-3.222;2023-06-14T05:31:34;43;41;
70915;PMS5003;58557;50.982;-3.222;2023-06-14T05:34:00;38;38;
70915;PMS5003;58557;50.982;-3.222;2023-06-14T05:36:26;38;36;
70915;PMS5003;58557;50.982;-3.222;2023-06-14T05:38:51;36;36;
70915;PMS5003;58557;50.982;-3.222;2023-06-14T05:41:17;39;34;
70915;PMS5003;58557;50.982;-3.222;2023-06-14T05:43:43;42;40;
70915;PMS5003;58557;50.982;-3.222;2023-06-14T05:46:08;33;33;
70915;PMS5003;58557;50.982;-3.222;2023-06-14T05:48:33;38;35;
70915;PMS5003;58557;50.982;-3.222;2023-06-14T05:50:59;33;33;
70915;PMS5003;58557;50.982;-3.222;2023-06-14T05:53:24;41;36;
70915;PMS5003;58557;50.982;-3.222;2023-06-14T05:55:49;30;30;
70915;PMS5003;58557;50.982;-3.222;2023-06-14T05:58:15;36;33;
70915;PMS5003;58557;50.982;-3.222;2023-06-14T06:00:40;34;32;
70915;PMS5003;58557;50.982;-3.222;2023-06-14T06:03:06;31;28;
70915;PMS5003;58557;50.982;-3.222;2023-06-14T06:05:32;32;29;
70915;PMS5003;58557;50.982;-3.222;2023-06-14T06:07:58;40;35;
70915;PMS5003;58557;50.982;-3.222;2023-06-14T06:10:24;34;33;
70915;PMS5003;58557;50.982;-3.222;2023-06-14T06:12:49;32;31;
70915;PMS5003;58557;50.982;-3.222;2023-06-14T06:15:15;37;31;
70915;PMS5003;58557;50.982;-3.222;2023-06-14T06:17:40;29;29;
70915;PMS5003;58557;50.982;-3.222;2023-06-14T06:20:05;33;33;
70915;PMS5003;58557;50.982;-3.222;2023-06-14T06:22:30;40;37;
70915;PMS5003;58557;50.982;-3.222;2023-06-14T06:24:56;32;32;
70915;PMS5003;58557;50.982;-3.222;2023-06-14T06:27:21;29;28;
70915;PMS5003;58557;50.982;-3.222;2023-06-14T06:29:46;36;35;
70915;PMS5003;58557;50.982;-3.222;2023-06-14T06:32:12;32;31;
70915;PMS5003;58557;50.982;-3.222;2023-06-14T06:34:38;35;35;
70915;PMS5003;58557;50.982;-3.222;2023-06-14T06:37:03;28;27;
70915;PMS5003;58557;50.982;-3.222;2023-06-14T06:39:28;26;24;
70915;PMS5003;58557;50.982;-3.222;2023-06-14T06:41:54;24;24;
70915;PMS5003;58557;50.982;-3.222;2023-06-14T06:44:19;27;24;
70915;PMS5003;58557;50.982;-3.222;2023-06-14T06:46:44;29;27;
70915;PMS5003;58557;50.982;-3.222;2023-06-14T06:49:09;20;17;
70915;PMS5003;58557;50.982;-3.222;2023-06-14T06:51:34;19;18;
70915;PMS5003;58557;50.982;-3.222;2023-06-14T06:54:00;19;18;
70915;PMS5003;58557;50.982;-3.222;2023-06-14T06:56:25;27;25;
70915;PMS5003;58557;50.982;-3.222;2023-06-14T06:58:50;18;18;
70915;PMS5003;58557;50.982;-3.222;2023-06-14T07:01:15;22;20;
70915;PMS5003;58557;50.982;-3.222;2023-06-14T07:03:41;20;20;
70915;PMS5003;58557;50.982;-3.222;2023-06-14T07:06:06;19;18;
70915;PMS5003;58557;50.982;-3.222;2023-06-14T07:08:31;23;21;
70915;PMS5003;58557;50.982;-3.222;2023-06-14T07:10:57;21;20;
70915;PMS5003;58557;50.982;-3.222;2023-06-14T07:13:22;18;16;
70915;PMS5003;58557;50.982;-3.222;2023-06-14T07:15:47;16;16;
70915;PMS5003;58557;50.982;-3.222;2023-06-14T07:18:13;11;11;
70915;PMS5003;58557;50.982;-3.222;2023-06-14T07:20:38;21;19;
70915;PMS5003;58557;50.982;-3.222;2023-06-14T07:23:04;16;14;
70915;PMS5003;58557;50.982;-3.222;2023-06-14T07:25:30;16;15;
70915;PMS5003;58557;50.982;-3.222;2023-06-14T07:27:54;16;14;
70915;PMS5003;58557;50.982;-3.222;2023-06-14T07:30:20;14;12;
70915;PMS5003;58557;50.982;-3.222;2023-06-14T07:32:45;19;17;
70915;PMS5003;58557;50.982;-3.222;2023-06-14T07:35:11;14;14;
70915;PMS5003;58557;50.982;-3.222;2023-06-14T07:37:36;13;11;
70915;PMS5003;58557;50.982;-3.222;2023-06-14T07:40:01;13;12;
70915;PMS5003;58557;50.982;-3.222;2023-06-14T07:42:27;13;12;
70915;PMS5003;58557;50.982;-3.222;2023-06-14T07:44:53;14;13;
70915;PMS5003;58557;50.982;-3.222;2023-06-14T07:47:18;13;13;
70915;PMS5003;58557;50.982;-3.222;2023-06-14T07:49:43;15;14;
70915;PMS5003;58557;50.982;-3.222;2023-06-14T07:52:09;15;14;
70915;PMS5003;58557;50.982;-3.222;2023-06-14T07:54:35;15;13;
70915;PMS5003;58557;50.982;-3.222;2023-06-14T07:57:00;14;11;
70915;PMS5003;58557;50.982;-3.222;2023-06-14T07:59:25;14;14;
70915;PMS5003;58557;50.982;-3.222;2023-06-14T08:01:51;14;14;
70915;PMS5003;58557;50.982;-3.222;2023-06-14T08:04:16;19;17;
70915;PMS5003;58557;50.982;-3.222;2023-06-14T08:06:42;17;17;
70915;PMS5003;58557;50.982;-3.222;2023-06-14T08:09:07;22;20;
70915;PMS5003;58557;50.982;-3.222;2023-06-14T08:11:33;15;15;
70915;PMS5003;58557;50.982;-3.222;2023-06-14T08:13:58;18;16;
70915;PMS5003;58557;50.982;-3.222;2023-06-14T08:16:24;18;18;
70915;PMS5003;58557;50.982;-3.222;2023-06-14T08:18:49;15;15;
70915;PMS5003;58557;50.982;-3.222;2023-06-14T08:21:15;17;16;
70915;PMS5003;58557;50.982;-3.222;2023-06-14T08:23:40;16;16;
70915;PMS5003;58557;50.982;-3.222;2023-06-14T08:26:05;10;10;
70915;PMS5003;58557;50.982;-3.222;2023-06-14T08:28:30;15;14;
70915;PMS5003;58557;50.982;-3.222;2023-06-14T08:30:56;16;13;
70915;PMS5003;58557;50.982;-3.222;2023-06-14T08:33:21;19;13;
70915;PMS5003;58557;50.982;-3.222;2023-06-14T08:35:47;13;13;
70915;PMS5003;58557;50.982;-3.222;2023-06-14T08:38:12;11;11;
70915;PMS5003;58557;50.982;-3.222;2023-06-14T08:40:38;12;11;
70915;PMS5003;58557;50.982;-3.222;2023-06-14T08:43:03;10;10;
70915;PMS5003;58557;50.982;-3.222;2023-06-14T08:45:29;13;11;
70915;PMS5003;58557;50.982;-3.222;2023-06-14T08:47:54;10;10;
70915;PMS5003;58557;50.982;-3.222;2023-06-14T08:50:20;9;8;
70915;PMS5003;58557;50.982;-3.222;2023-06-14T08:52:46;9;8;
70915;PMS5003;58557;50.982;-3.222;2023-06-14T08:55:11;8;8;
70915;PMS5003;58557;50.982;-3.222;2023-06-14T08:57:37;9;8;
70915;PMS5003;58557;50.982;-3.222;2023-06-14T09:00:03;9;9;
70915;PMS5003;58557;50.982;-3.222;2023-06-14T09:02:28;11;10;
70915;PMS5003;58557;50.982;-3.222;2023-06-14T09:04:53;10;6;
70915;PMS5003;58557;50.982;-3.222;2023-06-14T09:07:19;9;9;
70915;PMS5003;58557;50.982;-3.222;2023-06-14T09:09:44;8;8;
70915;PMS5003;58557;50.982;-3.222;2023-06-14T09:12:10;7;7;
70915;PMS5003;58557;50.982;-3.222;2023-06-14T09:14:35;9;9;
70915;PMS5003;58557;50.982;-3.222;2023-06-14T09:17:01;8;6;
70915;PMS5003;58557;50.982;-3.222;2023-06-14T09:19:26;12;10;
70915;PMS5003;58557;50.982;-3.222;2023-06-14T09:21:52;5;4;
70915;PMS5003;58557;50.982;-3.222;2023-06-14T09:24:18;7;6;
70915;PMS5003;58557;50.982;-3.222;2023-06-14T09:26:43;8;6;
70915;PMS5003;58557;50.982;-3.222;2023-06-14T09:29:09;10;10;
70915;PMS5003;58557;50.982;-3.222;2023-06-14T09:31:34;8;8;
70915;PMS5003;58557;50.982;-3.222;2023-06-14T09:34:01;9;6;
70915;PMS5003;58557;50.982;-3.222;2023-06-14T09:36:25;9;8;
70915;PMS5003;58557;50.982;-3.222;2023-06-14T09:38:51;7;6;
70915;PMS5003;58557;50.982;-3.222;2023-06-14T09:41:16;7;7;
70915;PMS5003;58557;50.982;-3.222;2023-06-14T09:43:41;10;8;
70915;PMS5003;58557;50.982;-3.222;2023-06-14T09:46:07;10;8;
70915;PMS5003;58557;50.982;-3.222;2023-06-14T09:48:32;8;8;
70915;PMS5003;58557;50.982;-3.222;2023-06-14T09:50:57;10;10;
70915;PMS5003;58557;50.982;-3.222;2023-06-14T09:53:23;9;9;
70915;PMS5003;58557;50.982;-3.222;2023-06-14T09:55:48;11;10;
70915;PMS5003;58557;50.982;-3.222;2023-06-14T09:58:14;10;9;
70915;PMS5003;58557;50.982;-3.222;2023-06-14T10:00:39;8;8;
70915;PMS5003;58557;50.982;-3.222;2023-06-14T10:03:06;7;6;
70915;PMS5003;58557;50.982;-3.222;2023-06-14T10:05:30;8;8;
70915;PMS5003;58557;50.982;-3.222;2023-06-14T10:07:59;9;8;
70915;PMS5003;58557;50.982;-3.222;2023-06-14T10:10:21;8;8;
70915;PMS5003;58557;50.982;-3.222;2023-06-14T10:12:47;7;7;
70915;PMS5003;58557;50.982;-3.222;2023-06-14T10:15:14;9;7;
70915;PMS5003;58557;50.982;-3.222;2023-06-14T10:17:39;10;8;
70915;PMS5003;58557;50.982;-3.222;2023-06-14T10:20:10;6;6;
70915;PMS5003;58557;50.982;-3.222;2023-06-14T10:22:30;9;7;
70915;PMS5003;58557;50.982;-3.222;2023-06-14T10:24:55;9;7;
70915;PMS5003;58557;50.982;-3.222;2023-06-14T10:27:20;6;6;
70915;PMS5003;58557;50.982;-3.222;2023-06-14T10:32:11;12;8;
70915;PMS5003;58557;50.982;-3.222;2023-06-14T10:34:38;7;7;
70915;PMS5003;58557;50.982;-3.222;2023-06-14T10:37:02;9;7;
70915;PMS5003;58557;50.982;-3.222;2023-06-14T10:39:27;9;8;
70915;PMS5003;58557;50.982;-3.222;2023-06-14T10:41:53;9;8;
70915;PMS5003;58557;50.982;-3.222;2023-06-14T10:46:45;6;6;
70915;PMS5003;58557;50.982;-3.222;2023-06-14T10:49:09;8;6;
70915;PMS5003;58557;50.982;-3.222;2023-06-14T10:51:38;5;5;
70915;PMS5003;58557;50.982;-3.222;2023-06-14T10:54:00;6;5;
70915;PMS5003;58557;50.982;-3.222;2023-06-14T10:56:27;7;5;
70915;PMS5003;58557;50.982;-3.222;2023-06-14T10:58:51;7;6;
70915;PMS5003;58557;50.982;-3.222;2023-06-14T11:01:17;5;5;
70915;PMS5003;58557;50.982;-3.222;2023-06-14T11:03:44;5;4;
70915;PMS5003;58557;50.982;-3.222;2023-06-14T11:06:12;8;6;
70915;PMS5003;58557;50.982;-3.222;2023-06-14T11:08:38;6;6;
70915;PMS5003;58557;50.982;-3.222;2023-06-14T11:10:59;8;8;
70915;PMS5003;58557;50.982;-3.222;2023-06-14T11:13:24;9;9;
70915;PMS5003;58557;50.982;-3.222;2023-06-14T11:15:50;4;4;
70915;PMS5003;58557;50.982;-3.222;2023-06-14T11:18:15;6;6;
70915;PMS5003;58557;50.982;-3.222;2023-06-14T11:20:41;5;4;
70915;PMS5003;58557;50.982;-3.222;2023-06-14T11:23:06;10;8;
70915;PMS5003;58557;50.982;-3.222;2023-06-14T11:25:32;8;8;
70915;PMS5003;58557;50.982;-3.222;2023-06-14T11:27:57;6;6;
70915;PMS5003;58557;50.982;-3.222;2023-06-14T11:30:23;6;5;
70915;PMS5003;58557;50.982;-3.222;2023-06-14T11:32:48;5;5;
70915;PMS5003;58557;50.982;-3.222;2023-06-14T11:35:14;6;6;
70915;PMS5003;58557;50.982;-3.222;2023-06-14T11:37:39;7;7;
70915;PMS5003;58557;50.982;-3.222;2023-06-14T11:40:06;8;7;
70915;PMS5003;58557;50.982;-3.222;2023-06-14T11:42:30;10;9;
70915;PMS5003;58557;50.982;-3.222;2023-06-14T11:44:55;5;5;
70915;PMS5003;58557;50.982;-3.222;2023-06-14T11:47:21;5;5;
70915;PMS5003;58557;50.982;-3.222;2023-06-14T11:49:47;9;8;
70915;PMS5003;58557;50.982;-3.222;2023-06-14T11:52:12;11;11;
70915;PMS5003;58557;50.982;-3.222;2023-06-14T11:54:37;7;6;
70915;PMS5003;58557;50.982;-3.222;2023-06-14T11:57:03;6;6;
70915;PMS5003;58557;50.982;-3.222;2023-06-14T11:59:28;6;6;
70915;PMS5003;58557;50.982;-3.222;2023-06-14T12:01:54;9;7;
70915;PMS5003;58557;50.982;-3.222;2023-06-14T12:04:23;6;6;
70915;PMS5003;58557;50.982;-3.222;2023-06-14T12:06:45;7;7;
70915;PMS5003;58557;50.982;-3.222;2023-06-14T12:09:10;8;8;
70915;PMS5003;58557;50.982;-3.222;2023-06-14T12:11:36;8;6;
70915;PMS5003;58557;50.982;-3.222;2023-06-14T12:14:02;8;8;
70915;PMS5003;58557;50.982;-3.222;2023-06-14T12:16:30;8;8;
70915;PMS5003;58557;50.982;-3.222;2023-06-14T12:18:52;9;9;
70915;PMS5003;58557;50.982;-3.222;2023-06-14T12:21:17;8;8;
70915;PMS5003;58557;50.982;-3.222;2023-06-14T12:23:43;11;8;
70915;PMS5003;58557;50.982;-3.222;2023-06-14T12:26:09;9;7;
70915;PMS5003;58557;50.982;-3.222;2023-06-14T12:28:34;7;7;
70915;PMS5003;58557;50.982;-3.222;2023-06-14T12:30:59;9;8;
70915;PMS5003;58557;50.982;-3.222;2023-06-14T12:33:25;8;8;
70915;PMS5003;58557;50.982;-3.222;2023-06-14T12:35:50;9;7;
70915;PMS5003;58557;50.982;-3.222;2023-06-14T12:38:16;8;8;
70915;PMS5003;58557;50.982;-3.222;2023-06-14T12:40:41;10;9;
70915;PMS5003;58557;50.982;-3.222;2023-06-14T12:43:06;12;10;
70915;PMS5003;58557;50.982;-3.222;2023-06-14T12:45:32;11;9;
70915;PMS5003;58557;50.982;-3.222;2023-06-14T12:47:58;9;9;
70915;PMS5003;58557;50.982;-3.222;2023-06-14T12:50:23;11;8;
70915;PMS5003;58557;50.982;-3.222;2023-06-14T12:52:48;10;10;
70915;PMS5003;58557;50.982;-3.222;2023-06-14T12:55:14;11;11;
70915;PMS5003;58557;50.982;-3.222;2023-06-14T12:57:39;8;7;
70915;PMS5003;58557;50.982;-3.222;2023-06-14T13:00:05;19;17;
70915;PMS5003;58557;50.982;-3.222;2023-06-14T13:02:30;11;11;
70915;PMS5003;58557;50.982;-3.222;2023-06-14T13:04:55;14;11;
70915;PMS5003;58557;50.982;-3.222;2023-06-14T13:07:21;13;11;
70915;PMS5003;58557;50.982;-3.222;2023-06-14T13:09:46;10;10;
70915;PMS5003;58557;50.982;-3.222;2023-06-14T13:12:11;14;11;
70915;PMS5003;58557;50.982;-3.222;2023-06-14T13:14:37;12;10;
70915;PMS5003;58557;50.982;-3.222;2023-06-14T13:17:03;13;11;
70915;PMS5003;58557;50.982;-3.222;2023-06-14T13:19:28;14;13;
70915;PMS5003;58557;50.982;-3.222;2023-06-14T13:21:54;12;12;
70915;PMS5003;58557;50.982;-3.222;2023-06-14T13:24:19;15;12;
70915;PMS5003;58557;50.982;-3.222;2023-06-14T13:26:44;11;11;
70915;PMS5003;58557;50.982;-3.222;2023-06-14T13:29:09;13;11;
70915;PMS5003;58557;50.982;-3.222;2023-06-14T13:31:35;15;14;
70915;PMS5003;58557;50.982;-3.222;2023-06-14T13:34:00;20;20;
70915;PMS5003;58557;50.982;-3.222;2023-06-14T13:36:25;20;17;
70915;PMS5003;58557;50.982;-3.222;2023-06-14T13:38:51;10;10;
70915;PMS5003;58557;50.982;-3.222;2023-06-14T13:41:16;14;13;
70915;PMS5003;58557;50.982;-3.222;2023-06-14T13:43:42;13;12;
70915;PMS5003;58557;50.982;-3.222;2023-06-14T13:46:07;14;12;
70915;PMS5003;58557;50.982;-3.222;2023-06-14T13:48:32;17;14;
70915;PMS5003;58557;50.982;-3.222;2023-06-14T13:50:59;15;15;
70915;PMS5003;58557;50.982;-3.222;2023-06-14T13:53:23;18;15;
70915;PMS5003;58557;50.982;-3.222;2023-06-14T13:55:48;14;14;
70915;PMS5003;58557;50.982;-3.222;2023-06-14T13:58:13;16;14;
70915;PMS5003;58557;50.982;-3.222;2023-06-14T14:00:39;13;13;
70915;PMS5003;58557;50.982;-3.222;2023-06-14T14:03:04;15;12;
70915;PMS5003;58557;50.982;-3.222;2023-06-14T14:05:30;13;13;
70915;PMS5003;58557;50.982;-3.222;2023-06-14T14:07:55;14;14;
70915;PMS5003;58557;50.982;-3.222;2023-06-14T14:10:21;11;11;
70915;PMS5003;58557;50.982;-3.222;2023-06-14T14:12:46;13;11;
70915;PMS5003;58557;50.982;-3.222;2023-06-14T14:15:11;13;13;
70915;PMS5003;58557;50.982;-3.222;2023-06-14T14:17:37;15;12;
70915;PMS5003;58557;50.982;-3.222;2023-06-14T14:20:02;12;12;
70915;PMS5003;58557;50.982;-3.222;2023-06-14T14:22:28;12;12;
70915;PMS5003;58557;50.982;-3.222;2023-06-14T14:24:53;12;10;
70915;PMS5003;58557;50.982;-3.222;2023-06-14T14:27:18;16;13;
70915;PMS5003;58557;50.982;-3.222;2023-06-14T14:29:44;17;15;
70915;PMS5003;58557;50.982;-3.222;2023-06-14T14:32:10;13;13;
70915;PMS5003;58557;50.982;-3.222;2023-06-14T14:34:35;13;13;
70915;PMS5003;58557;50.982;-3.222;2023-06-14T14:37:01;18;17;
70915;PMS5003;58557;50.982;-3.222;2023-06-14T14:39:26;12;12;
70915;PMS5003;58557;50.982;-3.222;2023-06-14T14:41:51;18;17;
70915;PMS5003;58557;50.982;-3.222;2023-06-14T14:44:17;14;14;
70915;PMS5003;58557;50.982;-3.222;2023-06-14T14:46:42;16;15;
70915;PMS5003;58557;50.982;-3.222;2023-06-14T14:49:07;13;13;
70915;PMS5003;58557;50.982;-3.222;2023-06-14T14:51:33;13;13;
70915;PMS5003;58557;50.982;-3.222;2023-06-14T14:53:58;16;16;
70915;PMS5003;58557;50.982;-3.222;2023-06-14T14:56:24;14;12;
70915;PMS5003;58557;50.982;-3.222;2023-06-14T14:58:50;15;12;
70915;PMS5003;58557;50.982;-3.222;2023-06-14T15:01:15;16;14;
70915;PMS5003;58557;50.982;-3.222;2023-06-14T15:03:41;21;17;
70915;PMS5003;58557;50.982;-3.222;2023-06-14T15:06:06;16;15;
70915;PMS5003;58557;50.982;-3.222;2023-06-14T15:08:32;16;16;
70915;PMS5003;58557;50.982;-3.222;2023-06-14T15:10:57;12;12;
70915;PMS5003;58557;50.982;-3.222;2023-06-14T15:13:23;12;12;
70915;PMS5003;58557;50.982;-3.222;2023-06-14T15:15:49;10;10;
70915;PMS5003;58557;50.982;-3.222;2023-06-14T15:18:14;15;15;
70915;PMS5003;58557;50.982;-3.222;2023-06-14T15:20:40;14;14;
70915;PMS5003;58557;50.982;-3.222;2023-06-14T15:23:05;14;14;
70915;PMS5003;58557;50.982;-3.222;2023-06-14T15:25:31;14;14;
70915;PMS5003;58557;50.982;-3.222;2023-06-14T15:27:56;14;13;
70915;PMS5003;58557;50.982;-3.222;2023-06-14T15:30:21;17;15;
70915;PMS5003;58557;50.982;-3.222;2023-06-14T15:32:46;15;14;
70915;PMS5003;58557;50.982;-3.222;2023-06-14T15:35:12;14;14;
70915;PMS5003;58557;50.982;-3.222;2023-06-14T15:37:37;18;18;
70915;PMS5003;58557;50.982;-3.222;2023-06-14T15:40:03;17;16;
70915;PMS5003;58557;50.982;-3.222;2023-06-14T15:42:28;15;15;
70915;PMS5003;58557;50.982;-3.222;2023-06-14T15:44:54;16;15;
70915;PMS5003;58557;50.982;-3.222;2023-06-14T15:47:19;23;23;
70915;PMS5003;58557;50.982;-3.222;2023-06-14T15:49:45;14;14;
70915;PMS5003;58557;50.982;-3.222;2023-06-14T15:52:10;18;18;
70915;PMS5003;58557;50.982;-3.222;2023-06-14T15:54:35;20;19;
70915;PMS5003;58557;50.982;-3.222;2023-06-14T15:57:00;16;15;
70915;PMS5003;58557;50.982;-3.222;2023-06-14T15:59:26;15;14;
70915;PMS5003;58557;50.982;-3.222;2023-06-14T16:01:51;14;14;